createdAt,value
2024-01-18T00:00:46.044Z,92127.00
2024-01-18T00:01:45.994Z,92132.00
2024-01-18T00:02:46.000Z,92133.00
2024-01-18T00:03:46.284Z,92135.00
2024-01-18T00:04:46.072Z,92136.00
2024-01-18T00:05:46.023Z,92135.00
2024-01-18T00:06:46.139Z,92136.00
2024-01-18T00:07:46.013Z,92134.00
2024-01-18T00:08:46.015Z,92135.00
2024-01-18T00:09:46.008Z,92136.00
2024-01-18T00:10:46.009Z,92136.00
2024-01-18T00:11:46.025Z,92139.00
2024-01-18T00:12:46.037Z,92137.00
2024-01-18T00:13:46.033Z,92137.00
2024-01-18T00:14:46.037Z,92136.00
2024-01-18T00:15:46.114Z,92139.00
2024-01-18T00:16:46.044Z,92143.00
2024-01-18T00:17:46.164Z,92144.00
2024-01-18T00:18:46.185Z,92145.00
2024-01-18T00:19:46.194Z,92143.00
2024-01-18T00:20:46.144Z,92144.00
2024-01-18T00:21:46.154Z,92145.00
2024-01-18T00:22:46.199Z,92144.00
2024-01-18T00:23:46.243Z,92146.00
2024-01-18T00:24:46.265Z,92150.00
2024-01-18T00:25:46.286Z,92153.00
2024-01-18T00:26:46.328Z,92153.00
2024-01-18T00:27:46.441Z,92156.00
2024-01-18T00:28:46.374Z,92154.00
2024-01-18T00:29:46.403Z,92156.00
2024-01-18T00:30:46.510Z,92157.00
2024-01-18T00:31:46.466Z,92158.00
2024-01-18T00:32:46.586Z,92160.00
2024-01-18T00:33:46.632Z,92162.00
2024-01-18T00:34:46.590Z,92162.00
2024-01-18T00:35:46.643Z,92164.00
2024-01-18T00:36:46.697Z,92165.00
2024-01-18T00:37:46.694Z,92166.00
2024-01-18T00:38:46.717Z,92165.00
2024-01-18T00:39:46.819Z,92169.00
2024-01-18T00:40:46.782Z,92173.00
2024-01-18T00:41:46.793Z,92173.00
2024-01-18T00:42:46.828Z,92175.00
2024-01-18T00:43:46.858Z,92177.00
2024-01-18T00:44:47.417Z,92178.00
2024-01-18T00:45:46.960Z,92182.00
2024-01-18T00:46:46.963Z,92183.00
2024-01-18T00:47:47.051Z,92186.00
2024-01-18T00:48:47.150Z,92189.00
2024-01-18T00:49:47.141Z,92190.00
2024-01-18T00:50:47.119Z,92191.00
2024-01-18T00:51:47.216Z,92194.00
2024-01-18T00:52:47.162Z,92197.00
2024-01-18T00:53:47.206Z,92200.00
2024-01-18T00:54:47.225Z,92200.00
2024-01-18T00:55:47.277Z,92200.00
2024-01-18T00:56:47.296Z,92201.00
2024-01-18T00:57:47.330Z,92204.00
2024-01-18T00:58:47.419Z,92204.00
2024-01-18T00:59:47.409Z,92207.00
2024-01-18T01:00:47.514Z,92207.00
2024-01-18T01:01:47.470Z,92212.00
2024-01-18T01:02:47.507Z,92213.00
2024-01-18T01:03:47.639Z,92214.00
2024-01-18T01:04:47.652Z,92214.00
2024-01-18T01:05:47.619Z,92216.00
2024-01-18T01:06:47.649Z,92217.00
2024-01-18T01:07:47.757Z,92218.00
2024-01-18T01:08:47.728Z,92218.00
2024-01-18T01:09:47.774Z,92218.00
2024-01-18T01:10:47.794Z,92218.00
2024-01-18T01:11:47.829Z,92220.00
2024-01-18T01:12:47.860Z,92222.00
2024-01-18T01:13:47.907Z,92222.00
2024-01-18T01:14:47.979Z,92225.00
2024-01-18T01:15:48.138Z,92227.00
2024-01-18T01:16:48.008Z,92230.00
2024-01-18T01:17:48.116Z,92233.00
2024-01-18T01:18:48.111Z,92233.00
2024-01-18T01:19:48.149Z,92237.00
2024-01-18T01:20:48.141Z,92238.00
2024-01-18T01:21:48.172Z,92240.00
2024-01-18T01:22:48.230Z,92242.00
2024-01-18T01:23:48.245Z,92245.00
2024-01-18T01:24:48.291Z,92247.00
2024-01-18T01:25:48.313Z,92248.00
2024-01-18T01:26:48.342Z,92250.00
2024-01-18T01:27:48.459Z,92251.00
2024-01-18T01:28:48.381Z,92253.00
2024-01-18T01:29:48.433Z,92252.00
2024-01-18T01:30:48.510Z,92253.00
2024-01-18T01:31:48.493Z,92254.00
2024-01-18T01:32:48.529Z,92250.00
2024-01-18T01:33:48.664Z,92250.00
2024-01-18T01:34:48.635Z,92248.00
2024-01-18T01:35:48.631Z,92249.00
2024-01-18T01:36:48.640Z,92251.00
2024-01-18T01:37:48.675Z,92250.00
2024-01-18T01:38:48.727Z,92250.00
2024-01-18T01:39:48.856Z,92251.00
2024-01-18T01:40:48.808Z,92249.00
2024-01-18T01:41:48.826Z,92251.00
2024-01-18T01:42:48.910Z,92253.00
2024-01-18T01:43:48.900Z,92255.00
2024-01-18T01:44:48.911Z,92254.00
2024-01-18T01:45:48.957Z,92256.00
2024-01-18T01:46:49.009Z,92256.00
2024-01-18T01:47:49.044Z,92254.00
2024-01-18T01:48:49.108Z,92256.00
2024-01-18T01:49:49.169Z,92258.00
2024-01-18T01:50:49.136Z,92258.00
2024-01-18T01:51:49.314Z,92258.00
2024-01-18T01:52:49.206Z,92257.00
2024-01-18T01:53:49.254Z,92257.00
2024-01-18T01:54:49.278Z,92259.00
2024-01-18T01:55:49.306Z,92259.00
2024-01-18T01:56:49.357Z,92261.00
2024-01-18T01:57:49.403Z,92266.00
2024-01-18T01:58:49.408Z,92268.00
2024-01-18T01:59:49.460Z,92269.00
2024-01-18T02:00:49.838Z,92271.00
2024-01-18T02:01:49.518Z,92268.00
2024-01-18T02:02:49.546Z,92269.00
2024-01-18T02:03:49.791Z,92271.00
2024-01-18T02:04:49.608Z,92272.00
2024-01-18T02:05:49.706Z,92274.00
2024-01-18T02:06:49.818Z,92275.00
2024-01-18T02:07:49.739Z,92273.00
2024-01-18T02:08:49.744Z,92276.00
2024-01-18T02:09:49.847Z,92275.00
2024-01-18T02:10:49.817Z,92274.00
2024-01-18T02:11:49.853Z,92275.00
2024-01-18T02:12:49.891Z,92275.00
2024-01-18T02:13:49.937Z,92274.00
2024-01-18T02:14:49.972Z,92274.00
2024-01-18T02:15:50.132Z,92274.00
2024-01-18T02:16:50.036Z,92274.00
2024-01-18T02:17:50.096Z,92274.00
2024-01-18T02:18:50.207Z,92272.00
2024-01-18T02:19:50.241Z,92274.00
2024-01-18T02:20:50.192Z,92272.00
2024-01-18T02:21:50.221Z,92271.00
2024-01-18T02:22:50.292Z,92272.00
2024-01-18T02:23:50.290Z,92273.00
2024-01-18T02:24:50.321Z,92273.00
2024-01-18T02:25:50.359Z,92274.00
2024-01-18T02:26:50.389Z,92272.00
2024-01-18T02:27:50.529Z,92275.00
2024-01-18T02:28:50.462Z,92277.00
2024-01-18T02:29:50.500Z,92279.00
2024-01-18T02:30:50.568Z,92280.00
2024-01-18T02:31:50.557Z,92277.00
2024-01-18T02:32:50.658Z,92276.00
2024-01-18T02:33:50.708Z,92276.00
2024-01-18T02:34:50.654Z,92277.00
2024-01-18T02:35:50.671Z,92281.00
2024-01-18T02:36:50.696Z,92282.00
2024-01-18T02:37:50.737Z,92283.00
2024-01-18T02:38:50.782Z,92284.00
2024-01-18T02:39:50.880Z,92284.00
2024-01-18T02:40:50.824Z,92285.00
2024-01-18T02:41:50.861Z,92287.00
2024-01-18T02:42:50.883Z,92288.00
2024-01-18T02:43:50.939Z,92287.00
2024-01-18T02:44:50.946Z,92288.00
2024-01-18T02:45:50.985Z,92287.00
2024-01-18T02:46:51.013Z,92284.00
2024-01-18T02:47:51.078Z,92285.00
2024-01-18T02:48:51.198Z,92286.00
2024-01-18T02:49:51.155Z,92285.00
2024-01-18T02:50:51.140Z,92286.00
2024-01-18T02:51:51.285Z,92286.00
2024-01-18T02:52:51.223Z,92286.00
2024-01-18T02:53:51.249Z,92287.00
2024-01-18T02:54:51.285Z,92286.00
2024-01-18T02:55:51.409Z,92285.00
2024-01-18T02:56:51.357Z,92286.00
2024-01-18T02:57:51.385Z,92283.00
2024-01-18T02:58:51.430Z,92284.00
2024-01-18T02:59:51.462Z,92281.00
2024-01-18T03:00:51.581Z,92283.00
2024-01-18T03:01:51.516Z,92283.00
2024-01-18T03:02:51.628Z,92283.00
2024-01-18T03:03:51.736Z,92284.00
2024-01-18T03:04:51.721Z,92282.00
2024-01-18T03:05:51.671Z,92283.00
2024-01-18T03:06:51.696Z,92285.00
2024-01-18T03:07:51.757Z,92289.00
2024-01-18T03:08:51.772Z,92286.00
2024-01-18T03:09:51.769Z,92284.00
2024-01-18T03:10:51.801Z,92283.00
2024-01-18T03:11:51.828Z,92281.00
2024-01-18T03:12:51.872Z,92281.00
2024-01-18T03:13:52.012Z,92283.00
2024-01-18T03:14:51.908Z,92282.00
2024-01-18T03:15:51.954Z,92286.00
2024-01-18T03:16:52.041Z,92283.00
2024-01-18T03:17:52.070Z,92285.00
2024-01-18T03:18:52.251Z,92283.00
2024-01-18T03:19:52.132Z,92282.00
2024-01-18T03:20:52.075Z,92282.00
2024-01-18T03:21:52.097Z,92283.00
2024-01-18T03:22:52.198Z,92282.00
2024-01-18T03:23:52.174Z,92281.00
2024-01-18T03:24:52.970Z,92278.00
2024-01-18T03:25:52.319Z,92276.00
2024-01-18T03:26:52.251Z,92276.00
2024-01-18T03:27:52.291Z,92274.00
2024-01-18T03:28:52.319Z,92270.00
2024-01-18T03:29:52.353Z,92268.00
2024-01-18T03:30:52.469Z,92269.00
2024-01-18T03:31:52.424Z,92264.00
2024-01-18T03:32:52.478Z,92261.00
2024-01-18T03:33:52.561Z,92261.00
2024-01-18T03:34:52.521Z,92258.00
2024-01-18T03:35:52.564Z,92260.00
2024-01-18T03:36:52.574Z,92257.00
2024-01-18T03:37:52.731Z,92256.00
2024-01-18T03:38:52.652Z,92253.00
2024-01-18T03:39:52.655Z,92252.00
2024-01-18T03:40:52.697Z,92255.00
2024-01-18T03:41:52.754Z,92256.00
2024-01-18T03:42:52.768Z,92259.00
2024-01-18T03:43:52.809Z,92261.00
2024-01-18T03:44:52.840Z,92260.00
2024-01-18T03:45:52.868Z,92261.00
2024-01-18T03:46:52.906Z,92265.00
2024-01-18T03:47:52.934Z,92265.00
2024-01-18T03:48:53.071Z,92265.00
2024-01-18T03:49:53.144Z,92265.00
2024-01-18T03:50:53.030Z,92266.00
2024-01-18T03:51:53.081Z,92264.00
2024-01-18T03:52:53.077Z,92265.00
2024-01-18T03:53:53.116Z,92267.00
2024-01-18T03:54:53.130Z,92269.00
2024-01-18T03:55:53.176Z,92272.00
2024-01-18T03:56:53.175Z,92272.00
2024-01-18T03:57:53.201Z,92275.00
2024-01-18T03:58:53.244Z,92274.00
2024-01-18T03:59:53.280Z,92274.00
2024-01-18T04:00:53.353Z,92271.00
2024-01-18T04:01:53.370Z,92270.00
2024-01-18T04:02:53.372Z,92265.00
2024-01-18T04:03:53.492Z,92266.00
2024-01-18T04:04:53.425Z,92266.00
2024-01-18T04:05:53.487Z,92263.00
2024-01-18T04:06:53.513Z,92265.00
2024-01-18T04:07:53.490Z,92270.00
2024-01-18T04:08:53.519Z,92267.00
2024-01-18T04:09:53.550Z,92268.00
2024-01-18T04:10:53.591Z,92269.00
2024-01-18T04:11:53.624Z,92270.00
2024-01-18T04:12:53.635Z,92273.00
2024-01-18T04:13:53.701Z,92276.00
2024-01-18T04:14:53.743Z,92279.00
2024-01-18T04:15:53.776Z,92278.00
2024-01-18T04:16:53.772Z,92281.00
2024-01-18T04:17:53.849Z,92278.00
2024-01-18T04:18:53.873Z,92281.00
2024-01-18T04:19:53.922Z,92282.00
2024-01-18T04:20:54.540Z,92283.00
2024-01-18T04:21:53.969Z,92286.00
2024-01-18T04:22:53.929Z,92290.00
2024-01-18T04:23:53.948Z,92292.00
2024-01-18T04:24:53.962Z,92295.00
2024-01-18T04:25:53.985Z,92297.00
2024-01-18T04:26:54.014Z,92296.00
2024-01-18T04:27:54.183Z,92295.00
2024-01-18T04:28:54.053Z,92294.00
2024-01-18T04:29:54.060Z,92296.00
2024-01-18T04:30:54.081Z,92296.00
2024-01-18T04:31:54.109Z,92297.00
2024-01-18T04:33:01.575Z,92297.00
2024-01-18T04:34:01.410Z,92296.00
2024-01-18T04:35:01.485Z,92297.00
2024-01-18T04:36:01.486Z,92296.00
2024-01-18T04:37:01.382Z,92298.00
2024-01-18T04:38:01.399Z,92298.00
2024-01-18T04:39:01.461Z,92305.00
2024-01-18T04:40:01.421Z,92306.00
2024-01-18T04:41:01.416Z,92306.00
2024-01-18T04:42:01.494Z,92306.00
2024-01-18T04:43:01.454Z,92302.00
2024-01-18T04:44:01.509Z,92300.00
2024-01-18T04:45:01.524Z,92298.00
2024-01-18T04:46:01.546Z,92298.00
2024-01-18T04:47:01.515Z,92299.00
2024-01-18T04:48:01.652Z,92298.00
2024-01-18T04:49:01.650Z,92295.00
2024-01-18T04:50:01.587Z,92291.00
2024-01-18T04:51:01.575Z,92290.00
2024-01-18T04:52:01.563Z,92290.00
2024-01-18T04:53:01.664Z,92287.00
2024-01-18T04:54:01.615Z,92287.00
2024-01-18T04:55:01.641Z,92286.00
2024-01-18T04:56:01.618Z,92287.00
2024-01-18T04:57:01.624Z,92288.00
2024-01-18T04:58:01.580Z,92293.00
2024-01-18T04:59:01.631Z,92294.00
2024-01-18T05:00:01.831Z,92296.00
2024-01-18T05:01:01.708Z,92294.00
2024-01-18T05:02:01.655Z,92295.00
2024-01-18T05:03:01.700Z,92294.00
2024-01-18T05:04:01.717Z,92296.00
2024-01-18T05:05:01.911Z,92300.00
2024-01-18T05:06:01.906Z,92301.00
2024-01-18T05:07:01.797Z,92298.00
2024-01-18T05:08:01.676Z,92300.00
2024-01-18T05:09:01.729Z,92298.00
2024-01-18T05:10:01.787Z,92299.00
2024-01-18T05:11:01.694Z,92299.00
2024-01-18T05:12:01.739Z,92297.00
2024-01-18T05:13:01.721Z,92295.00
2024-01-18T05:14:01.752Z,92295.00
2024-01-18T05:15:01.799Z,92296.00
2024-01-18T05:16:01.792Z,92301.00
2024-01-18T05:17:01.753Z,92301.00
2024-01-18T05:18:02.311Z,92300.00
2024-01-18T05:19:01.889Z,92302.00
2024-01-18T05:20:01.850Z,92303.00
2024-01-18T05:21:01.854Z,92303.00
2024-01-18T05:22:01.787Z,92305.00
2024-01-18T05:23:01.810Z,92306.00
2024-01-18T05:24:01.866Z,92306.00
2024-01-18T05:25:01.844Z,92307.00
2024-01-18T05:26:01.883Z,92304.00
2024-01-18T05:27:01.881Z,92300.00
2024-01-18T05:28:01.838Z,92300.00
2024-01-18T05:29:01.870Z,92301.00
2024-01-18T05:30:02.115Z,92302.00
2024-01-18T05:31:01.874Z,92300.00
2024-01-18T05:32:01.873Z,92296.00
2024-01-18T05:33:02.005Z,92295.00
2024-01-18T05:34:02.023Z,92297.00
2024-01-18T05:35:02.018Z,92299.00
2024-01-18T05:36:02.030Z,92302.00
2024-01-18T05:37:01.935Z,92303.00
2024-01-18T05:38:01.960Z,92304.00
2024-01-18T05:39:02.018Z,92303.00
2024-01-18T05:40:01.970Z,92302.00
2024-01-18T05:41:02.003Z,92305.00
2024-01-18T05:42:01.999Z,92305.00
2024-01-18T05:43:02.009Z,92306.00
2024-01-18T05:44:02.025Z,92304.00
2024-01-18T05:45:02.123Z,92306.00
2024-01-18T05:46:02.038Z,92304.00
2024-01-18T05:47:02.039Z,92302.00
2024-01-18T05:48:02.171Z,92302.00
2024-01-18T05:49:02.248Z,92295.00
2024-01-18T05:50:02.156Z,92295.00
2024-01-18T05:51:02.124Z,92297.00
2024-01-18T05:52:02.249Z,92295.00
2024-01-18T05:53:02.153Z,92291.00
2024-01-18T05:54:02.177Z,92289.00
2024-01-18T05:55:02.137Z,92287.00
2024-01-18T05:56:02.380Z,92286.00
2024-01-18T05:57:02.245Z,92286.00
2024-01-18T05:58:02.211Z,92285.00
2024-01-18T05:59:02.336Z,92284.00
2024-01-18T06:00:02.311Z,92287.00
2024-01-18T06:01:02.510Z,92289.00
2024-01-18T06:02:02.394Z,92290.00
2024-01-18T06:03:02.441Z,92292.00
2024-01-18T06:04:02.620Z,92294.00
2024-01-18T06:05:02.530Z,92296.00
2024-01-18T06:06:02.751Z,92295.00
2024-01-18T06:07:02.576Z,92296.00
2024-01-18T06:08:02.456Z,92293.00
2024-01-18T06:09:02.559Z,92290.00
2024-01-18T06:10:02.508Z,92286.00
2024-01-18T06:11:02.508Z,92285.00
2024-01-18T06:12:02.617Z,92287.00
2024-01-18T06:13:02.548Z,92286.00
2024-01-18T06:14:02.596Z,92287.00
2024-01-18T06:15:02.648Z,92288.00
2024-01-18T06:16:02.719Z,92288.00
2024-01-18T06:17:02.637Z,92286.00
2024-01-18T06:18:02.746Z,92290.00
2024-01-18T06:19:02.806Z,92291.00
2024-01-18T06:20:02.859Z,92290.00
2024-01-18T06:21:02.776Z,92291.00
2024-01-18T06:22:02.753Z,92289.00
2024-01-18T06:23:02.784Z,92292.00
2024-01-18T06:24:02.834Z,92288.00
2024-01-18T06:25:02.806Z,92285.00
2024-01-18T06:26:02.816Z,92287.00
2024-01-18T06:27:02.915Z,92288.00
2024-01-18T06:28:02.870Z,92289.00
2024-01-18T06:29:03.010Z,92288.00
2024-01-18T06:30:03.007Z,92287.00
2024-01-18T06:31:02.887Z,92286.00
2024-01-18T06:32:05.504Z,92286.00
2024-01-18T06:33:02.972Z,92289.00
2024-01-18T06:34:03.393Z,92293.00
2024-01-18T06:35:02.949Z,92294.00
2024-01-18T06:36:02.922Z,92298.00
2024-01-18T06:37:02.899Z,92295.00
2024-01-18T06:38:02.886Z,92295.00
2024-01-18T06:39:03.069Z,92288.00
2024-01-18T06:40:02.910Z,92287.00
2024-01-18T06:41:02.933Z,92285.00
2024-01-18T06:42:02.936Z,92287.00
2024-01-18T06:43:02.931Z,92290.00
2024-01-18T06:44:03.029Z,92290.00
2024-01-18T06:45:02.995Z,92287.00
2024-01-18T06:46:02.929Z,92287.00
2024-01-18T06:47:03.022Z,92286.00
2024-01-18T06:48:03.019Z,92288.00
2024-01-18T06:49:03.055Z,92293.00
2024-01-18T06:50:03.014Z,92295.00
2024-01-18T06:51:02.995Z,92294.00
2024-01-18T06:52:02.952Z,92293.00
2024-01-18T06:53:02.958Z,92288.00
2024-01-18T06:54:03.034Z,92290.00
2024-01-18T06:55:03.130Z,92290.00
2024-01-18T06:56:03.084Z,92293.00
2024-01-18T06:57:03.174Z,92289.00
2024-01-18T06:58:03.301Z,92290.00
2024-01-18T06:59:03.224Z,92288.00
2024-01-18T07:00:03.307Z,92285.00
2024-01-18T07:01:03.489Z,92286.00
2024-01-18T07:02:03.322Z,92284.00
2024-01-18T07:03:03.443Z,92283.00
2024-01-18T07:04:03.512Z,92280.00
2024-01-18T07:05:03.641Z,92279.00
2024-01-18T07:06:03.619Z,92283.00
2024-01-18T07:07:03.611Z,92285.00
2024-01-18T07:08:03.554Z,92284.00
2024-01-18T07:09:03.681Z,92282.00
2024-01-18T07:10:04.009Z,92283.00
2024-01-18T07:11:03.676Z,92286.00
2024-01-18T07:12:03.736Z,92288.00
2024-01-18T07:13:03.751Z,92287.00
2024-01-18T07:14:03.807Z,92283.00
2024-01-18T07:15:03.882Z,92282.00
2024-01-18T07:16:03.825Z,92276.00
2024-01-18T07:17:03.851Z,92273.00
2024-01-18T07:18:03.985Z,92277.00
2024-01-18T07:19:04.048Z,92279.00
2024-01-18T07:20:03.914Z,92280.00
2024-01-18T07:21:03.927Z,92283.00
2024-01-18T07:22:03.982Z,92288.00
2024-01-18T07:23:04.022Z,92287.00
2024-01-18T07:24:04.144Z,92293.00
2024-01-18T07:25:04.180Z,92293.00
2024-01-18T07:26:04.263Z,92290.00
2024-01-18T07:27:04.328Z,92289.00
2024-01-18T07:28:04.396Z,92286.00
2024-01-18T07:29:04.544Z,92282.00
2024-01-18T07:30:04.660Z,92279.00
2024-01-18T07:31:04.566Z,92277.00
2024-01-18T07:32:04.616Z,92278.00
2024-01-18T07:33:04.755Z,92278.00
2024-01-18T07:34:04.838Z,92275.00
2024-01-18T07:35:04.786Z,92271.00
2024-01-18T07:36:04.888Z,92268.00
2024-01-18T07:37:06.330Z,92266.00
2024-01-18T07:38:04.886Z,92266.00
2024-01-18T07:39:04.924Z,92265.00
2024-01-18T07:40:04.879Z,92265.00
2024-01-18T07:41:04.887Z,92265.00
2024-01-18T07:42:04.900Z,92263.00
2024-01-18T07:43:04.869Z,92264.00
2024-01-18T07:44:04.907Z,92266.00
2024-01-18T07:45:04.895Z,92268.00
2024-01-18T07:46:04.843Z,92271.00
2024-01-18T07:47:04.830Z,92279.00
2024-01-18T07:48:04.904Z,92283.00
2024-01-18T07:49:04.943Z,92285.00
2024-01-18T07:50:14.150Z,92286.00
2024-01-18T07:51:05.905Z,92289.00
2024-01-18T07:52:04.800Z,92290.00
2024-01-18T07:53:04.803Z,92287.00
2024-01-18T07:54:04.855Z,92285.00
2024-01-18T07:55:04.785Z,92284.00
2024-01-18T07:56:04.772Z,92282.00
2024-01-18T07:57:04.813Z,92281.00
2024-01-18T07:58:04.751Z,92284.00
2024-01-18T07:59:04.785Z,92279.00
2024-01-18T08:00:05.068Z,92280.00
2024-01-18T08:01:04.827Z,92280.00
2024-01-18T08:02:04.727Z,92279.00
2024-01-18T08:03:04.745Z,92278.00
2024-01-18T08:04:04.822Z,92280.00
2024-01-18T08:05:04.704Z,92276.00
2024-01-18T08:06:04.862Z,92277.00
2024-01-18T08:07:04.802Z,92273.00
2024-01-18T08:08:04.758Z,92271.00
2024-01-18T08:09:04.902Z,92271.00
2024-01-18T08:10:04.826Z,92274.00
2024-01-18T08:11:04.850Z,92274.00
2024-01-18T08:12:04.917Z,92281.00
2024-01-18T08:13:04.891Z,92285.00
2024-01-18T08:14:04.927Z,92291.00
2024-01-18T08:15:04.995Z,92289.00
2024-01-18T08:16:04.956Z,92285.00
2024-01-18T08:17:04.998Z,92282.00
2024-01-18T08:18:05.090Z,92279.00
2024-01-18T08:19:05.635Z,92282.00
2024-01-18T08:20:05.160Z,92281.00
2024-01-18T08:21:09.395Z,92280.00
2024-01-18T08:22:06.198Z,92284.00
2024-01-18T08:23:05.181Z,92286.00
2024-01-18T08:24:05.236Z,92288.00
2024-01-18T08:25:05.209Z,92289.00
2024-01-18T08:26:05.251Z,92292.00
2024-01-18T08:27:05.318Z,92292.00
2024-01-18T08:28:05.273Z,92295.00
2024-01-18T08:29:05.577Z,92296.00
2024-01-18T08:30:05.585Z,92298.00
2024-01-18T08:31:05.316Z,92300.00
2024-01-18T08:32:05.322Z,92299.00
2024-01-18T08:33:05.427Z,92296.00
2024-01-18T08:34:05.488Z,92293.00
2024-01-18T08:35:05.450Z,92297.00
2024-01-18T08:36:05.512Z,92303.00
2024-01-18T08:37:05.621Z,92309.00
2024-01-18T08:38:05.512Z,92312.00
2024-01-18T08:39:05.649Z,92312.00
2024-01-18T08:40:05.664Z,92312.00
2024-01-18T08:41:05.723Z,92312.00
2024-01-18T08:42:05.812Z,92313.00
2024-01-18T08:43:05.860Z,92313.00
2024-01-18T08:44:05.939Z,92312.00
2024-01-18T08:45:06.081Z,92312.00
2024-01-18T08:46:06.048Z,92316.00
2024-01-18T08:47:06.096Z,92314.00
2024-01-18T08:48:06.197Z,92312.00
2024-01-18T08:49:06.343Z,92312.00
2024-01-18T08:50:06.375Z,92311.00
2024-01-18T08:51:06.431Z,92313.00
2024-01-18T08:52:06.577Z,92311.00
2024-01-18T08:53:06.408Z,92312.00
2024-01-18T08:54:06.493Z,92315.00
2024-01-18T08:55:06.508Z,92319.00
2024-01-18T08:56:06.530Z,92317.00
2024-01-18T08:57:06.613Z,92314.00
2024-01-18T08:58:06.658Z,92313.00
2024-01-18T08:59:06.705Z,92308.00
2024-01-18T09:00:06.759Z,92310.00
2024-01-18T09:01:06.916Z,92308.00
2024-01-18T09:02:14.204Z,92307.00
2024-01-18T09:03:07.917Z,92307.00
2024-01-18T09:04:06.914Z,92305.00
2024-01-18T09:05:07.023Z,92303.00
2024-01-18T09:06:06.898Z,92303.00
2024-01-18T09:07:06.865Z,92305.00
2024-01-18T09:08:07.320Z,92302.00
2024-01-18T09:09:06.894Z,92301.00
2024-01-18T09:10:06.854Z,92295.00
2024-01-18T09:11:06.854Z,92303.00
2024-01-18T09:12:06.868Z,92303.00
2024-01-18T09:13:06.845Z,92304.00
2024-01-18T09:14:06.868Z,92301.00
2024-01-18T09:15:06.904Z,92296.00
2024-01-18T09:16:06.876Z,92293.00
2024-01-18T09:17:06.868Z,92292.00
2024-01-18T09:18:06.991Z,92289.00
2024-01-18T09:19:14.323Z,92291.00
2024-01-18T09:20:08.033Z,92292.00
2024-01-18T09:21:06.925Z,92297.00
2024-01-18T09:22:06.931Z,92301.00
2024-01-18T09:23:12.960Z,92302.00
2024-01-18T09:24:07.953Z,92302.00
2024-01-18T09:25:06.962Z,92296.00
2024-01-18T09:26:06.939Z,92294.00
2024-01-18T09:27:07.014Z,92290.00
2024-01-18T09:28:06.992Z,92287.00
2024-01-18T09:29:07.057Z,92287.00
2024-01-18T09:30:07.103Z,92291.00
2024-01-18T09:31:07.114Z,92294.00
2024-01-18T09:32:07.144Z,92298.00
2024-01-18T09:33:07.277Z,92299.00
2024-01-18T09:34:07.564Z,92298.00
2024-01-18T09:35:07.444Z,92297.00
2024-01-18T09:36:07.485Z,92299.00
2024-01-18T09:37:07.619Z,92306.00
2024-01-18T09:38:07.593Z,92312.00
2024-01-18T09:39:08.117Z,92316.00
2024-01-18T09:40:07.909Z,92315.00
2024-01-18T09:41:07.890Z,92320.00
2024-01-18T09:42:08.179Z,92318.00
2024-01-18T09:43:08.053Z,92318.00
2024-01-18T09:44:08.110Z,92315.00
2024-01-18T09:45:08.194Z,92320.00
2024-01-18T09:46:08.272Z,92320.00
2024-01-18T09:47:08.346Z,92322.00
2024-01-18T09:48:08.516Z,92321.00
2024-01-18T09:49:08.509Z,92321.00
2024-01-18T09:50:08.616Z,92321.00
2024-01-18T09:51:08.640Z,92322.00
2024-01-18T09:52:08.649Z,92327.00
2024-01-18T09:53:08.709Z,92330.00
2024-01-18T09:54:08.770Z,92328.00
2024-01-18T09:55:08.773Z,92324.00
2024-01-18T09:56:08.765Z,92321.00
2024-01-18T09:57:08.854Z,92318.00
2024-01-18T09:58:08.916Z,92315.00
2024-01-18T09:59:08.999Z,92313.00
2024-01-18T10:00:09.921Z,92315.00
2024-01-18T10:01:09.254Z,92313.00
2024-01-18T10:02:09.207Z,92315.00
2024-01-18T10:03:09.349Z,92312.00
2024-01-18T10:04:09.362Z,92311.00
2024-01-18T10:05:09.410Z,92318.00
2024-01-18T10:06:09.608Z,92322.00
2024-01-18T10:07:09.842Z,92322.00
2024-01-18T10:08:09.767Z,92320.00
2024-01-18T10:09:09.633Z,92318.00
2024-01-18T10:10:09.663Z,92320.00
2024-01-18T10:11:09.707Z,92323.00
2024-01-18T10:12:11.105Z,92322.00
2024-01-18T10:13:09.758Z,92322.00
2024-01-18T10:14:10.081Z,92323.00
2024-01-18T10:15:09.862Z,92321.00
2024-01-18T10:16:09.860Z,92321.00
2024-01-18T10:17:09.801Z,92320.00
2024-01-18T10:18:09.920Z,92316.00
2024-01-18T10:19:09.866Z,92312.00
2024-01-18T10:20:09.850Z,92308.00
2024-01-18T10:21:09.852Z,92308.00
2024-01-18T10:22:09.832Z,92311.00
2024-01-18T10:23:09.824Z,92310.00
2024-01-18T10:24:09.878Z,92302.00
2024-01-18T10:25:10.089Z,92300.00
2024-01-18T10:26:09.873Z,92300.00
2024-01-18T10:27:09.909Z,92304.00
2024-01-18T10:28:09.886Z,92302.00
2024-01-18T10:29:09.893Z,92300.00
2024-01-18T10:30:10.125Z,92293.00
2024-01-18T10:31:09.885Z,92286.00
2024-01-18T10:32:09.888Z,92283.00
2024-01-18T10:33:10.086Z,92283.00
2024-01-18T10:34:10.070Z,92282.00
2024-01-18T10:35:10.115Z,92281.00
2024-01-18T10:36:10.093Z,92277.00
2024-01-18T10:37:09.939Z,92273.00
2024-01-18T10:38:09.931Z,92269.00
2024-01-18T10:39:09.939Z,92266.00
2024-01-18T10:40:09.926Z,92266.00
2024-01-18T10:41:09.962Z,92268.00
2024-01-18T10:42:09.977Z,92273.00
2024-01-18T10:43:09.993Z,92274.00
2024-01-18T10:44:11.630Z,92277.00
2024-01-18T10:45:09.985Z,92281.00
2024-01-18T10:46:09.993Z,92281.00
2024-01-18T10:47:10.002Z,92286.00
2024-01-18T10:48:10.213Z,92283.00
2024-01-18T10:49:09.983Z,92283.00
2024-01-18T10:50:10.006Z,92280.00
2024-01-18T10:51:10.056Z,92279.00
2024-01-18T10:52:09.944Z,92274.00
2024-01-18T10:53:09.938Z,92272.00
2024-01-18T10:54:18.066Z,92270.00
2024-01-18T10:55:11.048Z,92269.00
2024-01-18T10:56:10.027Z,92264.00
2024-01-18T10:57:09.944Z,92263.00
2024-01-18T10:58:09.953Z,92256.00
2024-01-18T10:59:09.931Z,92254.00
2024-01-18T11:00:10.021Z,92255.00
2024-01-18T11:01:09.993Z,92261.00
2024-01-18T11:02:09.935Z,92264.00
2024-01-18T11:03:10.028Z,92265.00
2024-01-18T11:04:09.915Z,92264.00
2024-01-18T11:05:10.015Z,92264.00
2024-01-18T11:06:10.052Z,92264.00
2024-01-18T11:07:10.040Z,92265.00
2024-01-18T11:08:09.915Z,92267.00
2024-01-18T11:09:09.990Z,92269.00
2024-01-18T11:10:09.981Z,92268.00
2024-01-18T11:11:09.990Z,92261.00
2024-01-18T11:12:10.094Z,92254.00
2024-01-18T11:13:10.056Z,92248.00
2024-01-18T11:14:10.129Z,92244.00
2024-01-18T11:15:10.625Z,92241.00
2024-01-18T11:16:10.181Z,92240.00
2024-01-18T11:17:10.175Z,92240.00
2024-01-18T11:18:10.329Z,92241.00
2024-01-18T11:19:10.381Z,92238.00
2024-01-18T11:20:10.294Z,92235.00
2024-01-18T11:21:10.884Z,92236.00
2024-01-18T11:22:10.330Z,92232.00
2024-01-18T11:23:10.337Z,92234.00
2024-01-18T11:24:10.409Z,92229.00
2024-01-18T11:25:10.636Z,92230.00
2024-01-18T11:26:10.410Z,92224.00
2024-01-18T11:27:10.449Z,92225.00
2024-01-18T11:28:10.455Z,92226.00
2024-01-18T11:29:10.484Z,92225.00
2024-01-18T11:30:10.579Z,92225.00
2024-01-18T11:31:10.617Z,92225.00
2024-01-18T11:32:10.515Z,92228.00
2024-01-18T11:33:10.581Z,92229.00
2024-01-18T11:34:10.594Z,92229.00
2024-01-18T11:35:10.645Z,92230.00
2024-01-18T11:36:10.729Z,92231.00
2024-01-18T11:37:10.684Z,92234.00
2024-01-18T11:38:10.683Z,92235.00
2024-01-18T11:39:10.749Z,92237.00
2024-01-18T11:40:10.789Z,92237.00
2024-01-18T11:41:10.808Z,92239.00
2024-01-18T11:42:10.833Z,92240.00
2024-01-18T11:43:10.831Z,92237.00
2024-01-18T11:44:10.873Z,92235.00
2024-01-18T11:45:11.602Z,92235.00